Time;durP1;ratioP1;P1;durP2;ratioP2;P2;SDS_P1;SDS_P2;PMS_P1;PMS_P2;Temp;Humidity;BMP_temperature;BMP_pressure;BME280_temperature;BME280_humidity;BME280_pressure;Samples;Min_cycle;Max_cycle;Signal;HPM_P1;HPM_P2
2024/02/16 00:01:58;;;;;;;1.10;0.63;;;;;;;20.43;44.55;100733.97;4918825;29;20032;-60
2024/02/16 00:04:23;;;;;;;3.58;1.33;;;;;;;20.43;44.50;100733.97;4916371;29;20106;-60
2024/02/16 00:06:49;;;;;;;2.45;1.17;;;;;;;20.45;44.73;100731.91;4916174;29;20036;-60
2024/02/16 00:09:14;;;;;;;1.85;0.82;;;;;;;20.46;44.65;100741.75;4917607;29;20048;-60
2024/02/16 00:11:39;;;;;;;1.23;0.80;;;;;;;20.44;44.27;100733.75;4916428;29;20039;-60
2024/02/16 00:14:05;;;;;;;1.98;0.90;;;;;;;20.48;44.33;100731.50;4916176;29;20036;-60
2024/02/16 00:16:30;;;;;;;3.22;0.85;;;;;;;20.47;43.50;100729.81;4919489;29;20128;-61
2024/02/16 00:18:56;;;;;;;2.00;1.10;;;;;;;20.50;44.32;100730.28;4935290;29;20496;-60
2024/02/16 00:21:21;;;;;;;3.88;1.23;;;;;;;20.49;43.92;100727.75;4935072;29;20031;-60
2024/02/16 00:23:46;;;;;;;2.33;0.70;;;;;;;20.51;43.70;100731.13;4936409;29;20035;-60
2024/02/16 00:26:12;;;;;;;2.72;1.05;;;;;;;20.53;44.03;100735.31;4936499;29;20419;-60
2024/02/16 00:28:37;;;;;;;2.22;1.13;;;;;;;20.55;44.40;100732.38;4935337;29;20038;-60
2024/02/16 00:31:02;;;;;;;1.92;0.82;;;;;;;20.53;43.69;100734.47;4936399;29;20059;-60
2024/02/16 00:33:29;;;;;;;1.95;0.93;;;;;;;20.57;43.80;100736.63;4949927;28;20043;-60
2024/02/16 00:35:54;;;;;;;6.07;1.25;;;;;;;20.57;43.93;100727.63;4936119;29;20036;-60
2024/02/16 00:38:19;;;;;;;2.35;1.70;;;;;;;20.57;43.62;100730.34;4934990;29;20116;-60
2024/02/16 00:40:45;;;;;;;1.88;1.00;;;;;;;20.55;44.35;100724.22;4935956;29;20046;-61
2024/02/16 00:43:10;;;;;;;2.80;1.10;;;;;;;20.54;43.94;100730.72;4936183;29;20456;-60
2024/02/16 00:45:36;;;;;;;1.92;0.80;;;;;;;20.54;43.45;100725.28;4935812;29;20032;-60
2024/02/16 00:48:03;;;;;;;1.33;0.98;;;;;;;20.52;43.21;100720.00;4934805;29;20032;-60
2024/02/16 00:50:28;;;;;;;1.33;0.73;;;;;;;20.51;43.78;100722.94;4936005;29;20038;-60
2024/02/16 00:52:54;;;;;;;2.17;1.00;;;;;;;20.51;43.11;100717.50;4935907;29;20111;-60
2024/02/16 00:55:20;;;;;;;2.25;1.08;;;;;;;20.47;43.87;100706.16;4935845;29;20038;-61
2024/02/16 00:57:45;;;;;;;5.05;1.25;;;;;;;20.49;43.91;100705.97;4935826;29;20039;-61
2024/02/16 01:00:11;;;;;;;3.53;1.10;;;;;;;20.49;43.41;100705.97;4934622;29;20036;-65
2024/02/16 01:02:36;;;;;;;4.57;0.88;;;;;;;20.50;44.17;100699.47;4925985;29;20035;-66
2024/02/16 01:05:02;;;;;;;3.00;1.40;;;;;;;20.51;44.44;100704.75;4934494;29;20047;-65
2024/02/16 01:07:31;;;;;;;1.67;0.98;;;;;;;20.51;44.30;100702.03;4935935;29;20119;-66
2024/02/16 01:09:56;;;;;;;2.97;1.30;;;;;;;20.53;43.92;100701.81;4934594;29;20039;-65
2024/02/16 01:12:21;;;;;;;3.15;1.33;;;;;;;20.55;44.02;100708.75;4935889;29;20032;-65
2024/02/16 01:14:47;;;;;;;1.83;1.10;;;;;;;20.56;43.92;100704.16;4935774;29;20039;-65
2024/02/16 01:17:12;;;;;;;3.15;0.98;;;;;;;20.58;44.17;100716.50;4934462;29;20396;-65
2024/02/16 01:19:37;;;;;;;1.33;0.93;;;;;;;20.56;43.85;100712.31;4934564;29;20563;-65
2024/02/16 01:22:03;;;;;;;1.55;1.13;;;;;;;20.60;43.52;100724.50;4935780;29;20063;-66
2024/02/16 01:24:28;;;;;;;3.03;1.00;;;;;;;20.61;44.26;100712.56;4934673;29;20036;-66
2024/02/16 01:26:54;;;;;;;3.83;1.33;;;;;;;20.62;44.15;100709.66;4935697;29;20039;-66
2024/02/16 01:29:19;;;;;;;1.70;0.75;;;;;;;20.63;43.54;100724.13;4935715;29;20044;-65
2024/02/16 01:31:45;;;;;;;4.07;1.10;;;;;;;20.62;44.05;100722.41;4935588;29;20411;-65
2024/02/16 01:34:10;;;;;;;3.60;1.40;;;;;;;20.61;44.11;100718.00;4935375;29;20052;-66
2024/02/16 01:36:36;;;;;;;4.82;1.33;;;;;;;20.63;43.77;100724.13;4934316;29;20380;-65
2024/02/16 01:39:01;;;;;;;1.70;0.93;;;;;;;20.60;43.83;100717.16;4935601;29;20197;-66
2024/02/16 01:41:26;;;;;;;5.15;1.20;;;;;;;20.61;43.47;100712.56;4933916;29;20059;-65
2024/02/16 01:43:53;;;;;;;2.88;1.00;;;;;;;20.56;43.29;100712.31;4934670;29;20039;-65
2024/02/16 01:46:18;;;;;;;2.60;1.42;;;;;;;20.51;44.07;100703.91;4939330;29;20037;-65
2024/02/16 01:48:44;;;;;;;4.32;1.38;;;;;;;20.48;44.09;100698.84;4938030;29;20409;-64
2024/02/16 01:51:10;;;;;;;2.20;2.00;;;;;;;20.45;44.39;100693.78;4937930;29;20039;-65
2024/02/16 01:53:36;;;;;;;3.50;1.17;;;;;;;20.42;43.64;100694.19;4939038;29;20032;-64
2024/02/16 01:56:02;;;;;;;1.38;0.98;;;;;;;20.39;43.81;100694.56;4922090;29;20032;-64
2024/02/16 01:58:28;;;;;;;1.67;1.02;;;;;;;20.38;44.21;100692.91;4937742;29;20028;-64
2024/02/16 02:00:54;;;;;;;3.65;1.02;;;;;;;20.44;44.13;100705.69;4938709;29;20040;-65
2024/02/16 02:03:20;;;;;;;5.75;1.45;;;;;;;20.45;43.38;100701.97;4939020;28;20079;-64
2024/02/16 02:05:46;;;;;;;2.13;1.20;;;;;;;20.47;44.54;100702.59;4937698;29;20039;-64
2024/02/16 02:08:12;;;;;;;3.00;0.90;;;;;;;20.48;43.52;100701.56;4922151;29;20093;-64
2024/02/16 02:10:38;;;;;;;2.63;1.00;;;;;;;20.46;43.14;100703.66;4938925;28;20479;-59
2024/02/16 02:13:03;;;;;;;2.33;1.10;;;;;;;20.47;44.14;100708.88;4937585;29;20064;-59
2024/02/16 02:15:28;;;;;;;3.28;1.20;;;;;;;20.44;43.50;100706.56;4937547;29;20400;-60
2024/02/16 02:17:54;;;;;;;4.10;1.30;;;;;;;20.42;43.72;100699.63;4937585;29;20086;-59
2024/02/16 02:20:19;;;;;;;2.95;1.02;;;;;;;20.40;43.91;100696.25;4938563;28;20110;-60
2024/02/16 02:22:44;;;;;;;2.03;1.02;;;;;;;20.36;44.06;100700.41;4937381;29;20163;-60
2024/02/16 02:25:10;;;;;;;3.25;1.17;;;;;;;20.37;43.85;100697.50;4921338;29;20523;-60
2024/02/16 02:27:36;;;;;;;3.72;0.95;;;;;;;20.37;44.44;100696.66;4937268;29;20032;-60
2024/02/16 02:30:02;;;;;;;4.82;1.60;;;;;;;20.38;44.25;100701.06;4938753;28;20036;-60
2024/02/16 02:32:28;;;;;;;2.88;1.40;;;;;;;20.39;44.34;100691.84;4937240;29;20066;-60
2024/02/16 02:34:53;;;;;;;7.13;1.30;;;;;;;20.39;44.03;100689.13;4938189;28;20411;-60
2024/02/16 02:37:19;;;;;;;2.22;1.27;;;;;;;20.43;44.29;100690.44;4947831;29;20492;-60
2024/02/16 02:39:44;;;;;;;4.30;1.45;;;;;;;20.43;44.02;100685.00;4937368;29;20464;-60
2024/02/16 02:42:10;;;;;;;2.05;1.10;;;;;;;20.48;43.86;100685.25;4921247;29;20060;-60
2024/02/16 02:44:35;;;;;;;3.97;1.77;;;;;;;20.49;44.53;100684.22;4936817;29;20032;-60
2024/02/16 02:47:01;;;;;;;1.73;1.38;;;;;;;20.49;44.53;100676.03;4921006;29;20036;-60
2024/02/16 02:49:26;;;;;;;5.90;1.67;;;;;;;20.47;44.07;100670.78;4938106;29;20539;-59
2024/02/16 02:51:51;;;;;;;4.03;1.45;;;;;;;20.51;44.25;100671.25;4938045;29;20432;-60
2024/02/16 02:54:17;;;;;;;3.50;1.40;;;;;;;20.54;44.21;100662.69;4938039;29;20040;-60
2024/02/16 02:56:43;;;;;;;2.40;1.15;;;;;;;20.57;43.98;100663.13;4935944;29;20059;-60
2024/02/16 02:59:10;;;;;;;7.55;1.33;;;;;;;20.61;44.49;100660.84;4936804;29;20455;-60
2024/02/16 03:01:36;;;;;;;2.53;1.55;;;;;;;20.64;44.79;100661.28;4936782;29;20040;-60
2024/02/16 03:04:02;;;;;;;6.82;1.58;;;;;;;20.64;44.28;100655.84;4936614;29;20132;-60
2024/02/16 03:06:27;;;;;;;3.50;1.35;;;;;;;20.69;44.67;100653.38;4920873;29;20081;-60
2024/02/16 03:08:53;;;;;;;5.68;1.50;;;;;;;20.70;44.66;100654.22;4938744;29;20066;-60
2024/02/16 03:11:18;;;;;;;6.07;1.80;;;;;;;20.76;44.75;100669.75;4938395;29;20036;-60
2024/02/16 03:13:43;;;;;;;3.35;1.40;;;;;;;20.77;44.49;100663.28;4938452;29;20444;-61
2024/02/16 03:16:09;;;;;;;6.07;1.48;;;;;;;20.79;44.88;100663.91;4937706;29;20031;-60
2024/02/16 03:18:34;;;;;;;3.15;1.33;;;;;;;20.82;44.66;100666.25;4920459;29;20039;-60
2024/02/16 03:21:00;;;;;;;1.63;1.25;;;;;;;20.77;43.88;100655.13;4936465;29;20531;-60
2024/02/16 03:23:25;;;;;;;1.92;1.13;;;;;;;20.85;44.37;100663.13;4920351;29;20039;-60
2024/02/16 03:25:51;;;;;;;5.47;1.10;;;;;;;20.84;44.00;100650.53;4937371;29;20425;-60
2024/02/16 03:28:16;;;;;;;3.50;0.95;;;;;;;20.84;44.68;100656.81;4936169;29;20171;-61
2024/02/16 03:30:42;;;;;;;2.42;1.05;;;;;;;20.81;44.01;100657.22;4937387;29;20036;-62
2024/02/16 03:33:08;;;;;;;3.63;1.67;;;;;;;20.83;44.45;100657.00;4920052;29;20164;-62
2024/02/16 03:35:34;;;;;;;3.17;1.33;;;;;;;20.79;44.28;100658.47;4936068;29;20503;-62
2024/02/16 03:37:59;;;;;;;1.80;1.17;;;;;;;20.81;43.82;100657.22;4936056;29;20038;-62
2024/02/16 03:40:25;;;;;;;5.30;1.75;;;;;;;20.80;44.30;100666.41;4920133;29;20086;-62
2024/02/16 03:42:51;;;;;;;3.28;1.02;;;;;;;20.81;43.99;100667.28;4935934;29;20047;-62
2024/02/16 03:45:17;;;;;;;2.70;1.40;;;;;;;20.79;44.81;100658.47;4937114;29;20054;-62
2024/02/16 03:47:42;;;;;;;5.65;1.40;;;;;;;20.77;44.53;100661.38;4935806;29;20427;-62
2024/02/16 03:50:08;;;;;;;3.85;1.00;;;;;;;20.79;44.64;100664.75;4935743;29;20036;-59
2024/02/16 03:52:33;;;;;;;3.33;1.00;;;;;;;20.78;43.66;100659.50;4936850;29;20115;-62
2024/02/16 03:54:59;;;;;;;3.83;1.45;;;;;;;20.81;44.20;100664.53;4936891;29;20096;-62
2024/02/16 03:57:25;;;;;;;2.05;0.80;;;;;;;20.81;45.02;100664.53;4935640;29;20444;-62
2024/02/16 03:59:50;;;;;;;2.55;1.08;;;;;;;20.82;44.66;100671.69;4935663;29;20404;-62
2024/02/16 04:02:16;;;;;;;3.55;1.00;;;;;;;20.83;44.51;100670.63;4935511;29;20087;-62
2024/02/16 04:04:41;;;;;;;3.35;1.05;;;;;;;20.86;44.38;100671.06;4935381;29;20071;-62
2024/02/16 04:07:08;;;;;;;1.75;1.00;;;;;;;20.82;44.42;100664.38;4935929;28;20054;-63
2024/02/16 04:09:34;;;;;;;1.25;0.70;;;;;;;20.86;44.67;100662.06;4935365;29;20028;-62
2024/02/16 04:12:00;;;;;;;3.92;1.15;;;;;;;20.86;43.96;100665.63;4919725;29;20015;-62
2024/02/16 04:14:25;;;;;;;2.45;1.13;;;;;;;20.86;44.06;100664.78;4935382;28;20023;-62
2024/02/16 04:16:50;;;;;;;2.10;1.23;;;;;;;20.83;43.90;100665.19;4935231;29;20020;-62
2024/02/16 04:19:16;;;;;;;2.08;0.88;;;;;;;20.80;44.22;100676.47;4919356;29;20119;-62
2024/02/16 04:21:41;;;;;;;3.22;1.40;;;;;;;20.76;44.50;100665.16;4936413;29;20439;-59
2024/02/16 04:24:07;;;;;;;2.63;0.95;;;;;;;20.76;44.68;100675.19;4919337;29;20047;-62
2024/02/16 04:26:33;;;;;;;3.47;1.35;;;;;;;20.73;44.42;100676.44;4934963;29;20380;-62
2024/02/16 04:28:58;;;;;;;3.80;1.58;;;;;;;20.70;44.21;100665.09;4919110;29;20023;-62
2024/02/16 04:31:23;;;;;;;4.57;0.90;;;;;;;20.77;44.90;100677.72;4935072;29;20086;-62
2024/02/16 04:33:49;;;;;;;3.63;1.40;;;;;;;20.77;44.39;100666.00;4936050;29;20131;-62
2024/02/16 04:36:15;;;;;;;5.82;1.88;;;;;;;20.80;44.76;100660.97;4936140;29;20020;-62
2024/02/16 04:38:40;;;;;;;1.45;1.10;;;;;;;20.82;44.18;100675.25;4935143;29;20036;-62
2024/02/16 04:41:06;;;;;;;4.40;1.15;;;;;;;20.84;44.88;100672.31;4936089;29;20611;-62
2024/02/16 04:43:32;;;;;;;1.40;1.15;;;;;;;20.85;44.68;100677.53;4936056;29;20028;-62
2024/02/16 04:45:57;;;;;;;4.20;1.40;;;;;;;20.87;44.59;100672.75;4934943;29;20087;-59
2024/02/16 04:48:22;;;;;;;4.85;1.33;;;;;;;20.90;44.41;100672.38;4934882;29;20089;-62
2024/02/16 04:50:48;;;;;;;2.80;1.05;;;;;;;20.93;45.34;100676.56;4918893;29;20028;-62
2024/02/16 04:53:13;;;;;;;3.38;1.05;;;;;;;20.95;45.13;100679.09;4935938;29;20479;-59
2024/02/16 04:55:39;;;;;;;1.75;1.60;;;;;;;20.97;44.96;100677.84;4934742;29;20093;-62
2024/02/16 04:58:09;;;;;;;1.48;1.10;;;;;;;20.99;44.75;100667.59;4935771;29;20419;-62
2024/02/16 05:00:35;;;;;;;2.42;1.13;;;;;;;20.99;44.23;100670.34;4935874;29;20035;-62
2024/02/16 05:03:01;;;;;;;1.67;1.08;;;;;;;21.01;44.22;100665.50;4934599;29;20027;-62
2024/02/16 05:05:26;;;;;;;2.20;1.23;;;;;;;21.04;44.16;100676.00;4918728;28;20048;-61
2024/02/16 05:07:51;;;;;;;5.47;1.40;;;;;;;21.06;44.38;100673.91;4934546;29;20040;-62
2024/02/16 05:10:17;;;;;;;2.65;1.30;;;;;;;21.05;44.06;100674.13;4935602;29;20122;-61
2024/02/16 05:12:43;;;;;;;2.60;0.93;;;;;;;21.07;44.32;100675.66;4935774;29;20115;-61
2024/02/16 05:15:09;;;;;;;1.98;1.67;;;;;;;21.08;44.88;100671.84;4934513;29;20059;-61
2024/02/16 05:17:34;;;;;;;3.47;1.02;;;;;;;21.11;44.31;100671.47;4935837;29;20036;-61
2024/02/16 05:20:00;;;;;;;1.73;0.98;;;;;;;21.12;44.58;100664.97;4935485;29;20083;-61
2024/02/16 05:22:25;;;;;;;4.50;1.40;;;;;;;21.12;45.25;100654.09;4934387;29;20552;-61
2024/02/16 05:24:50;;;;;;;2.80;1.08;;;;;;;21.13;44.37;100669.41;4934244;29;20042;-61
2024/02/16 05:27:16;;;;;;;3.67;1.10;;;;;;;21.13;44.71;100666.69;4934322;29;20440;-61
2024/02/16 05:29:42;;;;;;;3.03;1.10;;;;;;;21.17;44.13;100657.03;4935722;29;20036;-61
2024/02/16 05:32:07;;;;;;;4.03;1.15;;;;;;;21.18;44.42;100669.63;4934417;29;20063;-60
2024/02/16 05:34:37;;;;;;;8.02;1.48;;;;;;;21.20;44.94;100677.59;4918029;29;20106;-61
2024/02/16 05:37:06;;;;;;;2.10;1.38;;;;;;;21.20;44.95;100681.16;4934514;29;20535;-61
2024/02/16 05:39:35;;;;;;;4.22;1.17;;;;;;;21.20;45.14;100678.44;4935506;29;20036;-61
2024/02/16 05:42:01;;;;;;;4.75;1.27;;;;;;;21.23;44.50;100688.94;4934696;29;20036;-61
2024/02/16 05:44:27;;;;;;;2.90;1.30;;;;;;;21.26;44.73;100684.97;4935703;29;20091;-61
2024/02/16 05:46:52;;;;;;;4.07;1.70;;;;;;;21.27;44.14;100695.63;4918330;29;20039;-62
2024/02/16 05:49:17;;;;;;;2.67;2.15;;;;;;;21.25;44.40;100691.44;4934442;29;20399;-61
2024/02/16 05:52:00;;;;;;;2.58;1.00;;;;;;;21.28;44.75;100694.59;4934289;29;20107;-61
2024/02/16 05:54:25;;;;;;;1.63;1.00;;;;;;;21.29;44.97;100687.28;4935614;29;20067;-60
2024/02/16 05:56:50;;;;;;;3.75;1.63;;;;;;;21.25;44.05;100691.44;4934357;29;20039;-61
2024/02/16 05:59:16;;;;;;;2.63;1.10;;;;;;;21.21;44.30;100699.19;4934650;29;20028;-61
2024/02/16 06:01:41;;;;;;;2.17;1.40;;;;;;;21.21;44.45;100698.34;4935470;29;20519;-61
2024/02/16 06:04:06;;;;;;;3.33;1.00;;;;;;;21.22;44.41;100695.41;4934065;29;20036;-61
2024/02/16 06:06:32;;;;;;;0.95;0.80;;;;;;;21.19;44.63;100695.81;4919153;29;20047;-62
2024/02/16 06:08:57;;;;;;;2.95;0.90;;;;;;;21.16;44.33;100687.22;4915039;29;20037;-61
2024/02/16 06:11:23;;;;;;;3.80;1.08;;;;;;;21.16;44.46;100698.94;4916286;28;20051;-61
2024/02/16 06:13:49;;;;;;;4.03;1.10;;;;;;;21.12;44.75;100692.22;4899298;29;20040;-61
2024/02/16 06:16:16;;;;;;;2.38;1.25;;;;;;;21.13;44.67;100699.38;4916211;29;20046;-61
2024/02/16 06:18:42;;;;;;;2.90;1.50;;;;;;;21.10;44.70;100709.81;4915121;29;20461;-61
2024/02/16 06:21:07;;;;;;;2.42;0.80;;;;;;;21.08;44.75;100720.88;4915131;29;20036;-61
2024/02/16 06:23:32;;;;;;;4.43;1.20;;;;;;;21.05;44.42;100715.81;4899137;29;20040;-61
2024/02/16 06:25:58;;;;;;;4.32;1.52;;;;;;;21.01;44.48;100721.88;4914936;29;20040;-61
2024/02/16 06:28:23;;;;;;;2.58;0.98;;;;;;;20.98;45.32;100728.56;4934337;29;20035;-62
2024/02/16 06:30:49;;;;;;;2.25;1.13;;;;;;;20.97;44.50;100726.88;4935465;29;20086;-61
2024/02/16 06:33:14;;;;;;;9.38;1.55;;;;;;;20.93;45.30;100731.03;4937115;29;20047;-61
2024/02/16 06:35:39;;;;;;;2.45;1.10;;;;;;;20.86;44.84;100725.53;4937247;29;20036;-61
2024/02/16 06:38:05;;;;;;;4.53;1.20;;;;;;;20.89;45.29;100727.88;4938376;29;20498;-61
2024/02/16 06:40:30;;;;;;;2.40;1.23;;;;;;;20.88;45.00;100739.78;4953038;29;20083;-61
2024/02/16 06:42:56;;;;;;;1.20;1.05;;;;;;;20.89;44.18;100746.09;4952838;29;20043;-61
2024/02/16 06:45:21;;;;;;;5.20;1.70;;;;;;;20.88;45.00;100745.22;4938311;29;20039;-61
2024/02/16 06:47:47;;;;;;;1.20;0.90;;;;;;;20.88;44.95;100749.88;4938184;29;20087;-61
2024/02/16 06:50:12;;;;;;;4.38;1.75;;;;;;;20.87;44.68;100749.03;4935707;29;20040;-64
2024/02/16 06:52:37;;;;;;;2.47;1.40;;;;;;;20.89;45.26;100751.53;4937387;29;20091;-65
2024/02/16 06:55:03;;;;;;;10.00;1.40;;;;;;;20.87;45.36;100759.06;4936725;29;20039;-64
2024/02/16 06:57:28;;;;;;;3.42;1.00;;;;;;;20.87;45.38;100772.69;4937935;29;20039;-64
2024/02/16 06:59:57;;;;;;;8.13;1.45;;;;;;;20.86;44.97;100762.81;4936760;29;20384;-65
2024/02/16 07:02:22;;;;;;;3.78;1.77;;;;;;;20.88;45.34;100777.09;4937580;29;20042;-64
2024/02/16 07:04:47;;;;;;;5.43;1.55;;;;;;;20.87;45.01;100770.81;4938027;29;20036;-64
2024/02/16 07:07:13;;;;;;;9.85;1.55;;;;;;;20.87;44.47;100772.69;4937552;29;20048;-65
2024/02/16 07:09:39;;;;;;;3.88;1.73;;;;;;;20.87;45.49;100775.41;4936530;29;20091;-64
2024/02/16 07:12:06;;;;;;;3.92;1.30;;;;;;;20.86;45.53;100779.16;4926719;29;20036;-64
2024/02/16 07:14:31;;;;;;;4.70;1.35;;;;;;;20.88;44.61;100782.53;4918730;28;20143;-65
2024/02/16 07:16:57;;;;;;;2.08;1.48;;;;;;;20.89;45.19;100789.66;4917553;29;20492;-65
2024/02/16 07:19:22;;;;;;;2.40;1.25;;;;;;;20.89;45.62;100795.09;4918633;29;20044;-64
2024/02/16 07:21:48;;;;;;;8.65;1.50;;;;;;;20.89;45.81;100795.09;4917155;29;20036;-65
2024/02/16 07:24:15;;;;;;;1.83;1.25;;;;;;;20.91;45.52;100798.47;4901583;29;20055;-65
2024/02/16 07:26:41;;;;;;;4.22;1.30;;;;;;;20.90;45.05;100796.78;4917579;29;20046;-65
2024/02/16 07:29:07;;;;;;;5.75;1.52;;;;;;;20.94;45.72;100808.97;4917459;29;20040;-65
2024/02/16 07:31:34;;;;;;;3.45;1.27;;;;;;;20.96;45.17;100809.63;4918393;29;20043;-65
2024/02/16 07:33:59;;;;;;;5.57;1.45;;;;;;;20.98;44.73;100810.25;4901402;29;20055;-64
2024/02/16 07:36:24;;;;;;;2.88;1.23;;;;;;;21.00;45.69;100802.72;4917010;29;20036;-66
2024/02/16 07:38:50;;;;;;;4.57;2.13;;;;;;;21.05;45.07;100819.31;4918337;29;20033;-65
2024/02/16 07:41:15;;;;;;;7.53;1.48;;;;;;;21.04;45.06;100809.47;4918336;29;20036;-65
2024/02/16 07:43:40;;;;;;;3.63;1.50;;;;;;;21.08;45.02;100810.78;4919109;29;20044;-65
2024/02/16 07:46:08;;;;;;;4.68;1.20;;;;;;;21.08;45.17;100816.25;4917903;29;20079;-65
2024/02/16 07:48:33;;;;;;;4.60;1.88;;;;;;;21.14;45.05;100820.91;4917224;29;20040;-64
2024/02/16 07:51:02;;;;;;;5.13;1.50;;;;;;;21.18;44.86;100818.63;4917682;29;20043;-65
2024/02/16 07:53:28;;;;;;;10.35;1.35;;;;;;;21.20;45.23;100825.56;4918045;29;20036;-64
2024/02/16 07:55:53;;;;;;;3.80;1.25;;;;;;;21.21;45.43;100835.44;4916795;29;20032;-65
2024/02/16 07:58:19;;;;;;;5.13;1.30;;;;;;;21.20;45.41;100822.84;4918066;29;20032;-64
2024/02/16 08:00:44;;;;;;;2.90;1.30;;;;;;;21.21;45.25;100832.72;4916768;29;20071;-61
2024/02/16 08:03:10;;;;;;;6.40;1.33;;;;;;;21.21;45.29;100826.41;4916594;29;20040;-61
2024/02/16 08:05:35;;;;;;;4.60;1.80;;;;;;;21.22;44.95;100845.28;4917573;29;20075;-61
2024/02/16 08:08:00;;;;;;;3.72;1.30;;;;;;;21.21;44.74;100849.06;4917776;29;20036;-61
2024/02/16 08:10:26;;;;;;;5.30;1.60;;;;;;;21.21;45.07;100845.47;4916529;29;20051;-61
2024/02/16 08:12:52;;;;;;;6.95;2.15;;;;;;;21.23;44.68;100846.97;4916524;29;20055;-61
2024/02/16 08:15:22;;;;;;;4.97;1.52;;;;;;;21.25;44.67;100861.22;4916420;29;20386;-61
2024/02/16 08:17:48;;;;;;;3.60;1.25;;;;;;;21.27;45.56;100861.88;4916610;29;20047;-61
2024/02/16 08:20:14;;;;;;;3.70;1.95;;;;;;;21.28;45.08;100860.84;4900551;29;20036;-61
2024/02/16 08:22:40;;;;;;;5.38;1.20;;;;;;;21.26;44.89;100868.38;4916362;29;20040;-61
2024/02/16 08:25:06;;;;;;;3.53;1.30;;;;;;;21.26;44.80;100862.91;4917469;29;20500;-61
2024/02/16 08:27:32;;;;;;;2.45;1.17;;;;;;;21.26;45.22;100873.81;4917334;29;20040;-61
2024/02/16 08:29:57;;;;;;;5.68;1.20;;;;;;;21.27;44.93;100878.22;4916279;29;20044;-61
2024/02/16 08:32:23;;;;;;;5.30;1.50;;;;;;;21.31;45.14;100884.13;4916204;29;20036;-61
2024/02/16 08:34:48;;;;;;;3.95;2.08;;;;;;;21.28;45.16;100885.34;4917303;29;20052;-61
2024/02/16 08:37:13;;;;;;;2.92;1.58;;;;;;;21.30;45.31;100894.16;4916055;29;20028;-61
2024/02/16 08:39:39;;;;;;;4.57;1.40;;;;;;;21.26;45.27;100894.78;4917324;29;20043;-61
2024/02/16 08:42:04;;;;;;;5.97;1.63;;;;;;;21.30;45.56;100888.72;4917254;29;20407;-61
2024/02/16 08:44:30;;;;;;;4.55;1.40;;;;;;;21.32;44.97;100897.56;4899992;29;20126;-61
2024/02/16 08:46:55;;;;;;;2.97;1.60;;;;;;;21.35;45.59;100899.91;4917192;29;20028;-61
2024/02/16 08:49:21;;;;;;;6.72;1.60;;;;;;;21.36;45.00;100912.47;4916050;29;20044;-61
2024/02/16 08:51:47;;;;;;;4.75;1.75;;;;;;;21.36;45.58;100909.75;4916653;29;20118;-61
2024/02/16 08:54:13;;;;;;;3.67;1.98;;;;;;;21.36;45.29;100909.75;4916508;29;20225;-61
2024/02/16 08:56:39;;;;;;;5.28;1.95;;;;;;;21.38;45.49;100915.81;4917007;29;20033;-61
2024/02/16 08:59:05;;;;;;;4.22;1.55;;;;;;;21.42;44.94;100917.13;4900021;29;20032;-61
2024/02/16 09:01:34;;;;;;;5.43;1.88;;;;;;;21.42;45.68;100910.84;4900073;29;20404;-61
2024/02/16 09:04:00;;;;;;;8.20;2.30;;;;;;;21.47;46.06;100925.56;4916725;29;20036;-61
2024/02/16 09:06:26;;;;;;;3.30;1.95;;;;;;;21.45;45.47;100914.00;4915530;29;20111;-61
2024/02/16 09:08:51;;;;;;;6.53;1.52;;;;;;;21.52;46.04;100919.53;4915646;29;20135;-61
2024/02/16 09:11:17;;;;;;;7.97;1.42;;;;;;;21.55;45.15;100932.78;4899860;29;20036;-65
2024/02/16 09:13:42;;;;;;;3.47;1.40;;;;;;;21.60;45.12;100940.34;4915702;29;20523;-64
2024/02/16 09:16:08;;;;;;;2.38;1.45;;;;;;;21.60;45.18;100932.16;4916755;29;20500;-65
2024/02/16 09:18:33;;;;;;;7.57;1.70;;;;;;;21.63;45.61;100940.78;4916604;29;20056;-65
2024/02/16 09:20:59;;;;;;;4.53;2.08;;;;;;;21.63;45.46;100937.22;4916729;29;20032;-64
2024/02/16 09:23:24;;;;;;;2.20;1.70;;;;;;;21.67;45.97;100941.22;4916638;29;20500;-64
2024/02/16 09:25:50;;;;;;;8.07;1.70;;;;;;;21.67;46.13;100935.75;4915492;29;20058;-65
2024/02/16 09:28:18;;;;;;;5.65;1.88;;;;;;;21.77;45.14;100947.19;4916632;29;20036;-65
2024/02/16 09:30:43;;;;;;;4.35;1.58;;;;;;;21.78;45.69;100946.97;4916682;29;20042;-64
2024/02/16 09:33:09;;;;;;;2.30;1.77;;;;;;;21.85;45.82;100955.22;4916550;29;20127;-64
2024/02/16 09:35:34;;;;;;;6.78;1.92;;;;;;;21.88;44.98;100965.75;4916513;29;20051;-65
2024/02/16 09:37:59;;;;;;;4.22;1.70;;;;;;;21.90;45.00;100964.50;4915263;29;20032;-65
2024/02/16 09:40:26;;;;;;;3.22;1.52;;;;;;;21.93;45.82;100968.72;4915181;29;20036;-65
2024/02/16 09:42:51;;;;;;;8.50;1.95;;;;;;;21.90;45.46;100977.31;4915244;29;20033;-65
2024/02/16 09:45:17;;;;;;;5.30;1.65;;;;;;;21.92;45.65;100975.22;4915243;29;20440;-65
2024/02/16 09:47:49;;;;;;;4.70;1.60;;;;;;;21.95;45.80;100985.72;4916562;29;20191;-65
2024/02/16 09:50:15;;;;;;;6.68;1.80;;;;;;;21.97;46.13;100981.75;4915353;29;20095;-65
2024/02/16 09:52:40;;;;;;;5.70;1.92;;;;;;;22.00;46.04;100991.41;4916201;29;20036;-65
2024/02/16 09:55:10;;;;;;;5.47;2.15;;;;;;;22.02;45.13;100994.81;4915172;29;20032;-65
2024/02/16 09:57:35;;;;;;;6.78;1.95;;;;;;;22.03;45.95;101001.94;4916063;29;20408;-65
2024/02/16 10:00:03;;;;;;;3.90;1.67;;;;;;;22.03;46.12;101004.66;4916499;29;20027;-65
2024/02/16 10:02:41;;;;;;;4.47;1.55;;;;;;;22.04;46.21;101011.81;4915123;29;20021;-65
2024/02/16 10:05:25;;;;;;;1.23;1.00;;;;;;;22.02;45.97;101016.66;4900370;28;20118;-64
2024/02/16 10:07:50;;;;;;;3.53;1.40;;;;;;;22.03;46.04;101021.03;4918699;29;20040;-65
2024/02/16 10:10:33;;;;;;;3.13;2.15;;;;;;;22.00;46.24;101025.00;4918906;29;20441;-64
2024/02/16 10:13:02;;;;;;;8.35;3.25;;;;;;;21.97;45.53;101030.03;4903312;29;20115;-64
2024/02/16 10:15:27;;;;;;;5.95;1.77;;;;;;;21.95;46.02;101022.03;4918462;29;20040;-65
2024/02/16 10:18:03;;;;;;;3.85;2.22;;;;;;;21.97;46.62;101025.41;4919688;29;20036;-64
2024/02/16 10:20:28;;;;;;;6.30;2.15;;;;;;;21.98;46.17;101015.34;4919992;29;20047;-61
2024/02/16 10:23:07;;;;;;;6.20;1.45;;;;;;;22.03;45.91;101023.78;4918442;29;20032;-60
2024/02/16 10:25:36;;;;;;;7.65;2.83;;;;;;;22.03;45.54;101029.22;4919498;29;20044;-61
2024/02/16 10:28:07;;;;;;;1.85;1.50;;;;;;;22.00;45.92;101033.19;4918474;29;20040;-61
2024/02/16 10:30:36;;;;;;;7.70;1.60;;;;;;;22.08;46.75;101048.59;4918280;29;20404;-61
2024/02/16 10:33:02;;;;;;;6.15;1.73;;;;;;;22.09;46.04;101053.00;4918129;29;20044;-61
2024/02/16 10:35:28;;;;;;;5.50;1.88;;;;;;;22.10;45.87;101051.97;4902511;29;20037;-61
2024/02/16 10:37:55;;;;;;;5.43;2.15;;;;;;;22.08;47.00;101047.75;4918167;29;20127;-61
2024/02/16 10:40:22;;;;;;;6.43;3.15;;;;;;;22.04;46.54;101052.75;4918105;29;20055;-61
2024/02/16 10:42:50;;;;;;;6.07;2.00;;;;;;;22.05;47.22;101066.19;4902504;29;20043;-61
2024/02/16 10:45:16;;;;;;;3.38;1.70;;;;;;;21.98;47.26;101059.84;4919071;29;20519;-61
2024/02/16 10:47:42;;;;;;;4.53;1.80;;;;;;;22.03;46.11;101078.34;4918032;29;20040;-61
2024/02/16 10:50:09;;;;;;;6.97;1.92;;;;;;;21.99;46.53;101077.06;4919430;29;20029;-61
2024/02/16 10:52:36;;;;;;;6.00;3.00;;;;;;;21.96;46.54;101074.72;4917843;29;20068;-61
2024/02/16 10:55:01;;;;;;;9.80;2.25;;;;;;;21.99;47.23;101085.25;4917849;29;20101;-61
2024/02/16 10:57:27;;;;;;;5.65;2.65;;;;;;;21.99;47.21;101087.97;4917873;29;20040;-61
2024/02/16 10:59:54;;;;;;;9.40;1.92;;;;;;;21.99;47.16;101086.09;4919046;29;20131;-61
2024/02/16 11:02:19;;;;;;;7.18;2.03;;;;;;;22.02;47.41;101093.03;4919199;29;20069;-61
2024/02/16 11:04:46;;;;;;;7.90;2.03;;;;;;;22.00;47.52;101093.22;4917629;29;20055;-61
2024/02/16 11:07:15;;;;;;;9.43;2.45;;;;;;;21.99;47.42;101098.88;4918753;29;20416;-61
2024/02/16 11:09:40;;;;;;;4.45;2.13;;;;;;;21.96;47.38;101096.56;4917638;29;20063;-61
2024/02/16 11:12:11;;;;;;;6.50;2.28;;;;;;;21.92;46.88;101092.50;4918765;29;20085;-61
2024/02/16 11:14:42;;;;;;;5.68;2.15;;;;;;;21.91;47.39;101096.31;4917523;29;20039;-61
2024/02/16 11:17:11;;;;;;;5.25;2.40;;;;;;;21.87;47.15;101100.44;4916885;29;20051;-61
2024/02/16 11:19:40;;;;;;;5.05;2.65;;;;;;;21.85;47.05;101097.91;4918501;29;20036;-61